sensor_id;sensor_type;location;lat;lon;timestamp;temperature;humidity
37702;DHT22;23548;51.196;6.838;2023-07-22T00:02:22;14.70;94.70
37702;DHT22;23548;51.196;6.838;2023-07-22T00:04:49;14.80;94.70
37702;DHT22;23548;51.196;6.838;2023-07-22T00:07:15;14.80;95.00
37702;DHT22;23548;51.196;6.838;2023-07-22T00:09:43;14.70;95.30
37702;DHT22;23548;51.196;6.838;2023-07-22T00:12:10;14.70;95.40
37702;DHT22;23548;51.196;6.838;2023-07-22T00:14:41;14.70;95.50
37702;DHT22;23548;51.196;6.838;2023-07-22T00:17:07;14.70;95.90
37702;DHT22;23548;51.196;6.838;2023-07-22T00:19:33;14.70;96.00
37702;DHT22;23548;51.196;6.838;2023-07-22T00:21:59;14.80;96.00
37702;DHT22;23548;51.196;6.838;2023-07-22T00:24:25;14.70;96.30
37702;DHT22;23548;51.196;6.838;2023-07-22T00:26:51;14.70;96.70
37702;DHT22;23548;51.196;6.838;2023-07-22T00:29:17;14.70;96.80
37702;DHT22;23548;51.196;6.838;2023-07-22T00:31:43;14.70;97.00
37702;DHT22;23548;51.196;6.838;2023-07-22T00:34:08;14.70;97.10
37702;DHT22;23548;51.196;6.838;2023-07-22T00:36:34;14.70;97.50
37702;DHT22;23548;51.196;6.838;2023-07-22T00:39:00;14.70;97.60
37702;DHT22;23548;51.196;6.838;2023-07-22T00:41:27;14.70;97.80
37702;DHT22;23548;51.196;6.838;2023-07-22T00:43:52;14.60;98.40
37702;DHT22;23548;51.196;6.838;2023-07-22T00:46:18;14.70;98.60
37702;DHT22;23548;51.196;6.838;2023-07-22T00:48:45;14.70;98.60
37702;DHT22;23548;51.196;6.838;2023-07-22T00:51:11;14.80;98.50
37702;DHT22;23548;51.196;6.838;2023-07-22T00:53:37;14.90;98.20
37702;DHT22;23548;51.196;6.838;2023-07-22T00:56:03;14.90;97.80
37702;DHT22;23548;51.196;6.838;2023-07-22T00:58:30;15.00;97.30
37702;DHT22;23548;51.196;6.838;2023-07-22T01:00:56;15.00;97.00
37702;DHT22;23548;51.196;6.838;2023-07-22T01:03:21;15.10;96.60
37702;DHT22;23548;51.196;6.838;2023-07-22T01:05:48;15.10;96.00
37702;DHT22;23548;51.196;6.838;2023-07-22T01:08:14;15.10;96.30
37702;DHT22;23548;51.196;6.838;2023-07-22T01:10:40;15.10;95.90
37702;DHT22;23548;51.196;6.838;2023-07-22T01:13:07;15.20;95.70
37702;DHT22;23548;51.196;6.838;2023-07-22T01:15:33;15.10;95.90
37702;DHT22;23548;51.196;6.838;2023-07-22T01:17:59;15.00;95.80
37702;DHT22;23548;51.196;6.838;2023-07-22T01:20:28;15.00;95.80
37702;DHT22;23548;51.196;6.838;2023-07-22T01:22:54;15.00;95.30
37702;DHT22;23548;51.196;6.838;2023-07-22T01:25:21;14.90;95.40
37702;DHT22;23548;51.196;6.838;2023-07-22T01:27:51;14.90;95.30
37702;DHT22;23548;51.196;6.838;2023-07-22T01:30:17;14.90;95.10
37702;DHT22;23548;51.196;6.838;2023-07-22T01:32:44;14.90;95.10
37702;DHT22;23548;51.196;6.838;2023-07-22T01:35:10;14.90;95.20
37702;DHT22;23548;51.196;6.838;2023-07-22T01:37:36;14.90;95.90
37702;DHT22;23548;51.196;6.838;2023-07-22T01:40:03;14.90;96.40
37702;DHT22;23548;51.196;6.838;2023-07-22T01:42:41;14.90;96.90
37702;DHT22;23548;51.196;6.838;2023-07-22T01:45:08;14.80;97.10
37702;DHT22;23548;51.196;6.838;2023-07-22T01:47:35;14.90;97.20
37702;DHT22;23548;51.196;6.838;2023-07-22T01:50:04;14.80;97.00
37702;DHT22;23548;51.196;6.838;2023-07-22T01:52:31;14.80;97.20
37702;DHT22;23548;51.196;6.838;2023-07-22T01:58:19;14.70;97.30
37702;DHT22;23548;51.196;6.838;2023-07-22T02:00:50;14.70;97.20
37702;DHT22;23548;51.196;6.838;2023-07-22T02:03:16;14.70;97.30
37702;DHT22;23548;51.196;6.838;2023-07-22T02:05:41;14.80;96.90
37702;DHT22;23548;51.196;6.838;2023-07-22T02:08:07;14.60;97.00
37702;DHT22;23548;51.196;6.838;2023-07-22T02:10:33;14.70;97.30
37702;DHT22;23548;51.196;6.838;2023-07-22T02:12:58;14.60;97.60
37702;DHT22;23548;51.196;6.838;2023-07-22T02:15:24;14.60;97.60
37702;DHT22;23548;51.196;6.838;2023-07-22T02:17:50;14.60;97.80
37702;DHT22;23548;51.196;6.838;2023-07-22T02:20:16;14.60;97.90
37702;DHT22;23548;51.196;6.838;2023-07-22T02:22:42;14.50;98.00
37702;DHT22;23548;51.196;6.838;2023-07-22T02:25:08;14.50;98.60
37702;DHT22;23548;51.196;6.838;2023-07-22T02:27:36;14.50;98.90
37702;DHT22;23548;51.196;6.838;2023-07-22T02:30:03;14.50;99.00
37702;DHT22;23548;51.196;6.838;2023-07-22T02:32:30;14.40;99.60
37702;DHT22;23548;51.196;6.838;2023-07-22T02:34:55;14.40;99.60
37702;DHT22;23548;51.196;6.838;2023-07-22T02:37:21;14.40;99.80
37702;DHT22;23548;51.196;6.838;2023-07-22T02:39:47;14.40;99.90
37702;DHT22;23548;51.196;6.838;2023-07-22T02:42:12;14.40;99.90
37702;DHT22;23548;51.196;6.838;2023-07-22T02:44:38;14.30;99.90
37702;DHT22;23548;51.196;6.838;2023-07-22T02:47:04;14.40;99.90
37702;DHT22;23548;51.196;6.838;2023-07-22T02:49:29;14.40;99.90
37702;DHT22;23548;51.196;6.838;2023-07-22T02:51:55;14.40;99.90
37702;DHT22;23548;51.196;6.838;2023-07-22T02:54:21;14.40;99.90
37702;DHT22;23548;51.196;6.838;2023-07-22T02:56:47;14.40;99.90
37702;DHT22;23548;51.196;6.838;2023-07-22T02:59:13;14.40;99.80
37702;DHT22;23548;51.196;6.838;2023-07-22T03:01:38;14.40;99.80
37702;DHT22;23548;51.196;6.838;2023-07-22T03:04:04;14.40;99.80
37702;DHT22;23548;51.196;6.838;2023-07-22T03:06:30;14.40;99.90
37702;DHT22;23548;51.196;6.838;2023-07-22T03:08:56;14.40;99.60
37702;DHT22;23548;51.196;6.838;2023-07-22T03:11:23;14.30;99.50
37702;DHT22;23548;51.196;6.838;2023-07-22T03:13:51;14.30;99.10
37702;DHT22;23548;51.196;6.838;2023-07-22T03:16:16;14.40;98.50
37702;DHT22;23548;51.196;6.838;2023-07-22T03:18:42;14.40;98.30
37702;DHT22;23548;51.196;6.838;2023-07-22T03:21:10;14.40;98.20
37702;DHT22;23548;51.196;6.838;2023-07-22T03:23:35;14.40;97.90
37702;DHT22;23548;51.196;6.838;2023-07-22T03:26:01;14.40;98.00
37702;DHT22;23548;51.196;6.838;2023-07-22T03:28:27;14.30;98.00
37702;DHT22;23548;51.196;6.838;2023-07-22T03:30:52;14.40;97.80
37702;DHT22;23548;51.196;6.838;2023-07-22T03:33:18;14.30;98.10
37702;DHT22;23548;51.196;6.838;2023-07-22T03:35:44;14.30;97.90
37702;DHT22;23548;51.196;6.838;2023-07-22T03:38:10;14.30;98.20
37702;DHT22;23548;51.196;6.838;2023-07-22T03:40:35;14.30;98.20
37702;DHT22;23548;51.196;6.838;2023-07-22T03:43:03;14.20;98.20
37702;DHT22;23548;51.196;6.838;2023-07-22T03:45:29;14.30;98.10
37702;DHT22;23548;51.196;6.838;2023-07-22T03:47:58;14.30;98.20
37702;DHT22;23548;51.196;6.838;2023-07-22T03:50:25;14.20;98.40
37702;DHT22;23548;51.196;6.838;2023-07-22T03:52:50;14.20;98.40
37702;DHT22;23548;51.196;6.838;2023-07-22T03:55:16;14.20;98.30
37702;DHT22;23548;51.196;6.838;2023-07-22T03:57:42;14.30;98.30
37702;DHT22;23548;51.196;6.838;2023-07-22T04:00:08;14.30;98.20
37702;DHT22;23548;51.196;6.838;2023-07-22T04:02:37;14.40;98.20
37702;DHT22;23548;51.196;6.838;2023-07-22T04:05:03;14.40;97.90
37702;DHT22;23548;51.196;6.838;2023-07-22T04:07:28;14.50;97.60
37702;DHT22;23548;51.196;6.838;2023-07-22T04:09:54;14.50;97.60
37702;DHT22;23548;51.196;6.838;2023-07-22T04:12:20;14.50;97.50
37702;DHT22;23548;51.196;6.838;2023-07-22T04:14:46;14.50;97.80
37702;DHT22;23548;51.196;6.838;2023-07-22T04:17:11;14.40;98.00
37702;DHT22;23548;51.196;6.838;2023-07-22T04:19:37;14.40;98.00
37702;DHT22;23548;51.196;6.838;2023-07-22T04:22:04;14.50;97.50
37702;DHT22;23548;51.196;6.838;2023-07-22T04:24:30;14.60;97.40
37702;DHT22;23548;51.196;6.838;2023-07-22T04:26:57;14.60;97.50
37702;DHT22;23548;51.196;6.838;2023-07-22T04:29:22;14.60;97.50
37702;DHT22;23548;51.196;6.838;2023-07-22T04:31:48;14.70;97.80
37702;DHT22;23548;51.196;6.838;2023-07-22T04:34:14;14.70;97.70
37702;DHT22;23548;51.196;6.838;2023-07-22T04:36:40;14.70;97.80
37702;DHT22;23548;51.196;6.838;2023-07-22T04:39:05;14.70;98.00
37702;DHT22;23548;51.196;6.838;2023-07-22T04:41:32;14.80;98.00
37702;DHT22;23548;51.196;6.838;2023-07-22T04:43:58;14.90;97.90
37702;DHT22;23548;51.196;6.838;2023-07-22T04:46:25;14.80;98.00
37702;DHT22;23548;51.196;6.838;2023-07-22T04:48:53;14.90;97.90
37702;DHT22;23548;51.196;6.838;2023-07-22T04:51:19;14.90;98.00
37702;DHT22;23548;51.196;6.838;2023-07-22T04:53:45;15.00;97.90
37702;DHT22;23548;51.196;6.838;2023-07-22T04:56:11;15.10;97.70
37702;DHT22;23548;51.196;6.838;2023-07-22T04:58:36;15.10;97.60
37702;DHT22;23548;51.196;6.838;2023-07-22T05:01:02;15.20;97.70
37702;DHT22;23548;51.196;6.838;2023-07-22T05:03:28;15.30;97.70
37702;DHT22;23548;51.196;6.838;2023-07-22T05:05:53;15.40;97.40
37702;DHT22;23548;51.196;6.838;2023-07-22T05:08:19;15.40;97.20
37702;DHT22;23548;51.196;6.838;2023-07-22T05:10:46;15.30;97.40
37702;DHT22;23548;51.196;6.838;2023-07-22T05:13:12;15.50;96.90
37702;DHT22;23548;51.196;6.838;2023-07-22T05:15:37;15.60;96.90
37702;DHT22;23548;51.196;6.838;2023-07-22T05:18:03;15.70;97.00
37702;DHT22;23548;51.196;6.838;2023-07-22T05:20:29;15.60;96.90
37702;DHT22;23548;51.196;6.838;2023-07-22T05:22:55;15.70;96.60
37702;DHT22;23548;51.196;6.838;2023-07-22T05:25:21;15.80;96.40
37702;DHT22;23548;51.196;6.838;2023-07-22T05:27:46;16.00;96.20
37702;DHT22;23548;51.196;6.838;2023-07-22T05:30:12;16.00;95.70
37702;DHT22;23548;51.196;6.838;2023-07-22T05:32:38;16.10;95.70
37702;DHT22;23548;51.196;6.838;2023-07-22T05:35:04;16.30;95.00
37702;DHT22;23548;51.196;6.838;2023-07-22T05:37:31;16.30;95.10
37702;DHT22;23548;51.196;6.838;2023-07-22T05:39:57;16.40;95.20
37702;DHT22;23548;51.196;6.838;2023-07-22T05:42:23;16.60;94.40
37702;DHT22;23548;51.196;6.838;2023-07-22T05:44:49;16.80;93.90
37702;DHT22;23548;51.196;6.838;2023-07-22T05:47:14;16.90;93.50
37702;DHT22;23548;51.196;6.838;2023-07-22T05:49:40;17.00;93.50
37702;DHT22;23548;51.196;6.838;2023-07-22T05:52:06;17.20;93.10
37702;DHT22;23548;51.196;6.838;2023-07-22T05:54:32;17.40;92.50
37702;DHT22;23548;51.196;6.838;2023-07-22T05:56:58;17.50;92.00
37702;DHT22;23548;51.196;6.838;2023-07-22T05:59:24;17.80;91.50
37702;DHT22;23548;51.196;6.838;2023-07-22T06:01:50;17.70;90.10
37702;DHT22;23548;51.196;6.838;2023-07-22T06:04:15;17.30;89.90
37702;DHT22;23548;51.196;6.838;2023-07-22T06:06:41;17.00;90.60
37702;DHT22;23548;51.196;6.838;2023-07-22T06:09:07;17.00;90.30
37702;DHT22;23548;51.196;6.838;2023-07-22T06:11:33;16.90;90.70
37702;DHT22;23548;51.196;6.838;2023-07-22T06:13:58;16.90;90.60
37702;DHT22;23548;51.196;6.838;2023-07-22T06:16:24;17.20;90.60
37702;DHT22;23548;51.196;6.838;2023-07-22T06:18:50;17.30;89.90
37702;DHT22;23548;51.196;6.838;2023-07-22T06:21:15;17.30;90.10
37702;DHT22;23548;51.196;6.838;2023-07-22T06:23:41;17.30;89.40
37702;DHT22;23548;51.196;6.838;2023-07-22T06:26:07;17.40;88.10
37702;DHT22;23548;51.196;6.838;2023-07-22T06:28:33;17.50;87.30
37702;DHT22;23548;51.196;6.838;2023-07-22T06:30:58;17.20;87.90
37702;DHT22;23548;51.196;6.838;2023-07-22T06:33:24;17.40;88.80
37702;DHT22;23548;51.196;6.838;2023-07-22T06:35:50;17.70;87.30
37702;DHT22;23548;51.196;6.838;2023-07-22T06:38:16;17.40;86.70
37702;DHT22;23548;51.196;6.838;2023-07-22T06:40:41;17.40;87.40
37702;DHT22;23548;51.196;6.838;2023-07-22T06:43:07;17.50;87.20
37702;DHT22;23548;51.196;6.838;2023-07-22T06:45:33;17.70;86.60
37702;DHT22;23548;51.196;6.838;2023-07-22T06:47:58;17.80;85.50
37702;DHT22;23548;51.196;6.838;2023-07-22T06:50:24;17.90;84.10
37702;DHT22;23548;51.196;6.838;2023-07-22T06:52:50;18.10;83.70
37702;DHT22;23548;51.196;6.838;2023-07-22T06:55:16;18.50;83.20
37702;DHT22;23548;51.196;6.838;2023-07-22T06:57:42;18.40;81.50
37702;DHT22;23548;51.196;6.838;2023-07-22T07:00:08;18.20;81.30
37702;DHT22;23548;51.196;6.838;2023-07-22T07:02:35;18.10;82.10
37702;DHT22;23548;51.196;6.838;2023-07-22T07:05:01;18.10;81.70
37702;DHT22;23548;51.196;6.838;2023-07-22T07:07:27;18.40;81.00
37702;DHT22;23548;51.196;6.838;2023-07-22T07:09:53;18.20;82.00
37702;DHT22;23548;51.196;6.838;2023-07-22T07:12:19;18.50;81.50
37702;DHT22;23548;51.196;6.838;2023-07-22T07:14:44;18.60;80.30
37702;DHT22;23548;51.196;6.838;2023-07-22T07:17:10;18.20;81.50
37702;DHT22;23548;51.196;6.838;2023-07-22T07:19:36;18.60;80.60
37702;DHT22;23548;51.196;6.838;2023-07-22T07:22:02;19.10;79.70
37702;DHT22;23548;51.196;6.838;2023-07-22T07:24:28;19.00;78.70
37702;DHT22;23548;51.196;6.838;2023-07-22T07:26:53;19.00;79.60
37702;DHT22;23548;51.196;6.838;2023-07-22T07:29:19;19.60;78.60
37702;DHT22;23548;51.196;6.838;2023-07-22T07:31:45;19.60;77.40
37702;DHT22;23548;51.196;6.838;2023-07-22T07:34:11;19.60;77.40
37702;DHT22;23548;51.196;6.838;2023-07-22T07:36:36;19.50;77.70
37702;DHT22;23548;51.196;6.838;2023-07-22T07:39:02;19.40;78.40
37702;DHT22;23548;51.196;6.838;2023-07-22T07:41:29;19.00;79.40
37702;DHT22;23548;51.196;6.838;2023-07-22T07:43:54;19.10;79.50
37702;DHT22;23548;51.196;6.838;2023-07-22T07:46:25;19.30;79.80
37702;DHT22;23548;51.196;6.838;2023-07-22T07:48:59;19.30;79.20
37702;DHT22;23548;51.196;6.838;2023-07-22T07:51:27;19.30;79.90
37702;DHT22;23548;51.196;6.838;2023-07-22T07:53:53;19.60;78.30
37702;DHT22;23548;51.196;6.838;2023-07-22T07:56:19;19.60;78.20
37702;DHT22;23548;51.196;6.838;2023-07-22T07:58:46;19.50;78.10
37702;DHT22;23548;51.196;6.838;2023-07-22T08:01:13;20.10;77.20
37702;DHT22;23548;51.196;6.838;2023-07-22T08:03:42;20.20;76.30
37702;DHT22;23548;51.196;6.838;2023-07-22T08:06:11;19.90;76.70
37702;DHT22;23548;51.196;6.838;2023-07-22T08:08:37;19.10;78.40
37702;DHT22;23548;51.196;6.838;2023-07-22T08:11:11;19.20;79.00
37702;DHT22;23548;51.196;6.838;2023-07-22T08:13:39;19.10;79.50
37702;DHT22;23548;51.196;6.838;2023-07-22T08:16:07;19.50;79.20
37702;DHT22;23548;51.196;6.838;2023-07-22T08:18:34;19.50;77.90
37702;DHT22;23548;51.196;6.838;2023-07-22T08:21:00;19.70;77.90
37702;DHT22;23548;51.196;6.838;2023-07-22T08:23:26;19.80;77.80
37702;DHT22;23548;51.196;6.838;2023-07-22T08:25:52;19.90;77.30
37702;DHT22;23548;51.196;6.838;2023-07-22T08:28:17;19.30;76.80
37702;DHT22;23548;51.196;6.838;2023-07-22T08:30:43;19.50;77.20
37702;DHT22;23548;51.196;6.838;2023-07-22T08:33:10;19.90;76.60
37702;DHT22;23548;51.196;6.838;2023-07-22T08:35:40;19.90;76.30
37702;DHT22;23548;51.196;6.838;2023-07-22T08:38:07;20.10;76.00
37702;DHT22;23548;51.196;6.838;2023-07-22T08:40:35;20.30;75.50
37702;DHT22;23548;51.196;6.838;2023-07-22T08:43:02;20.20;74.50
37702;DHT22;23548;51.196;6.838;2023-07-22T08:45:30;19.90;75.40
37702;DHT22;23548;51.196;6.838;2023-07-22T08:47:59;20.00;75.50
37702;DHT22;23548;51.196;6.838;2023-07-22T08:50:29;20.40;74.20
37702;DHT22;23548;51.196;6.838;2023-07-22T08:52:56;20.80;72.30
37702;DHT22;23548;51.196;6.838;2023-07-22T08:55:23;21.10;71.30
37702;DHT22;23548;51.196;6.838;2023-07-22T08:57:50;20.50;71.70
37702;DHT22;23548;51.196;6.838;2023-07-22T09:00:16;20.70;71.00
37702;DHT22;23548;51.196;6.838;2023-07-22T09:02:43;21.00;70.90
37702;DHT22;23548;51.196;6.838;2023-07-22T09:05:10;21.70;69.80
37702;DHT22;23548;51.196;6.838;2023-07-22T09:07:37;21.80;68.80
37702;DHT22;23548;51.196;6.838;2023-07-22T09:10:05;21.60;68.20
37702;DHT22;23548;51.196;6.838;2023-07-22T09:12:34;21.60;66.70
37702;DHT22;23548;51.196;6.838;2023-07-22T09:15:11;21.50;66.40
37702;DHT22;23548;51.196;6.838;2023-07-22T09:17:40;21.50;67.30
37702;DHT22;23548;51.196;6.838;2023-07-22T09:20:07;21.50;67.40
37702;DHT22;23548;51.196;6.838;2023-07-22T09:22:33;21.60;67.20
37702;DHT22;23548;51.196;6.838;2023-07-22T09:25:23;21.90;65.90
37702;DHT22;23548;51.196;6.838;2023-07-22T09:27:51;22.10;65.40
37702;DHT22;23548;51.196;6.838;2023-07-22T09:32:46;21.80;64.80
37702;DHT22;23548;51.196;6.838;2023-07-22T09:35:12;22.10;64.20
37702;DHT22;23548;51.196;6.838;2023-07-22T09:37:38;22.40;63.70
37702;DHT22;23548;51.196;6.838;2023-07-22T09:42:50;22.30;62.30
37702;DHT22;23548;51.196;6.838;2023-07-22T09:45:17;22.60;62.10
37702;DHT22;23548;51.196;6.838;2023-07-22T09:47:47;22.90;60.90
37702;DHT22;23548;51.196;6.838;2023-07-22T09:52:48;23.10;57.90
37702;DHT22;23548;51.196;6.838;2023-07-22T09:55:33;22.90;57.40
37702;DHT22;23548;51.196;6.838;2023-07-22T09:58:01;22.70;58.10
37702;DHT22;23548;51.196;6.838;2023-07-22T10:00:31;23.00;57.90
37702;DHT22;23548;51.196;6.838;2023-07-22T10:02:58;22.70;56.90
37702;DHT22;23548;51.196;6.838;2023-07-22T10:05:26;22.30;57.90
37702;DHT22;23548;51.196;6.838;2023-07-22T10:07:56;22.50;57.90
37702;DHT22;23548;51.196;6.838;2023-07-22T10:10:42;22.40;57.80
37702;DHT22;23548;51.196;6.838;2023-07-22T10:13:09;22.40;57.80
37702;DHT22;23548;51.196;6.838;2023-07-22T10:15:36;22.20;58.00
37702;DHT22;23548;51.196;6.838;2023-07-22T10:18:04;22.20;58.90
37702;DHT22;23548;51.196;6.838;2023-07-22T10:20:34;21.80;59.10
37702;DHT22;23548;51.196;6.838;2023-07-22T10:23:02;21.80;59.70
37702;DHT22;23548;51.196;6.838;2023-07-22T10:25:30;21.90;59.50
37702;DHT22;23548;51.196;6.838;2023-07-22T10:27:55;21.90;59.50
37702;DHT22;23548;51.196;6.838;2023-07-22T10:30:21;21.90;60.60
37702;DHT22;23548;51.196;6.838;2023-07-22T10:32:49;22.10;59.90
37702;DHT22;23548;51.196;6.838;2023-07-22T10:38:06;22.30;59.50
37702;DHT22;23548;51.196;6.838;2023-07-22T10:40:49;22.30;59.70
37702;DHT22;23548;51.196;6.838;2023-07-22T10:43:16;22.20;60.90
37702;DHT22;23548;51.196;6.838;2023-07-22T10:45:53;22.20;60.70
37702;DHT22;23548;51.196;6.838;2023-07-22T10:48:20;22.10;60.80
37702;DHT22;23548;51.196;6.838;2023-07-22T10:50:49;22.20;60.20
37702;DHT22;23548;51.196;6.838;2023-07-22T10:53:47;22.00;60.30
37702;DHT22;23548;51.196;6.838;2023-07-22T11:04:22;22.30;60.40
37702;DHT22;23548;51.196;6.838;2023-07-22T11:07:05;22.70;59.50
37702;DHT22;23548;51.196;6.838;2023-07-22T11:14:35;23.20;57.30
37702;DHT22;23548;51.196;6.838;2023-07-22T11:17:04;23.10;56.90
37702;DHT22;23548;51.196;6.838;2023-07-22T11:19:30;23.50;55.50
37702;DHT22;23548;51.196;6.838;2023-07-22T11:21:57;23.90;53.50
37702;DHT22;23548;51.196;6.838;2023-07-22T11:24:23;24.20;53.20
37702;DHT22;23548;51.196;6.838;2023-07-22T11:26:51;24.30;53.40
37702;DHT22;23548;51.196;6.838;2023-07-22T11:29:17;23.90;50.90
37702;DHT22;23548;51.196;6.838;2023-07-22T11:31:45;23.70;51.50
37702;DHT22;23548;51.196;6.838;2023-07-22T11:34:13;23.30;53.30
37702;DHT22;23548;51.196;6.838;2023-07-22T11:36:39;23.30;54.10
37702;DHT22;23548;51.196;6.838;2023-07-22T11:39:10;23.30;54.50
37702;DHT22;23548;51.196;6.838;2023-07-22T11:41:37;23.40;54.00
37702;DHT22;23548;51.196;6.838;2023-07-22T11:44:04;23.60;53.90
37702;DHT22;23548;51.196;6.838;2023-07-22T11:47:00;23.60;53.90
37702;DHT22;23548;51.196;6.838;2023-07-22T11:49:32;23.90;53.80
37702;DHT22;23548;51.196;6.838;2023-07-22T11:54:29;23.70;53.30
37702;DHT22;23548;51.196;6.838;2023-07-22T11:56:56;23.60;53.20
37702;DHT22;23548;51.196;6.838;2023-07-22T11:59:58;23.40;52.80
37702;DHT22;23548;51.196;6.838;2023-07-22T12:02:25;23.70;52.30
37702;DHT22;23548;51.196;6.838;2023-07-22T12:05:03;24.00;51.50
37702;DHT22;23548;51.196;6.838;2023-07-22T12:07:35;23.80;51.20
37702;DHT22;23548;51.196;6.838;2023-07-22T12:10:03;24.30;51.30
37702;DHT22;23548;51.196;6.838;2023-07-22T12:12:45;24.40;51.90
37702;DHT22;23548;51.196;6.838;2023-07-22T12:15:14;24.70;51.60
37702;DHT22;23548;51.196;6.838;2023-07-22T12:17:55;25.30;49.70
37702;DHT22;23548;51.196;6.838;2023-07-22T12:20:25;25.00;49.30
37702;DHT22;23548;51.196;6.838;2023-07-22T12:22:52;25.30;49.30
37702;DHT22;23548;51.196;6.838;2023-07-22T12:25:18;25.00;50.10
37702;DHT22;23548;51.196;6.838;2023-07-22T12:27:44;25.00;51.00
37702;DHT22;23548;51.196;6.838;2023-07-22T12:30:11;25.00;50.40
37702;DHT22;23548;51.196;6.838;2023-07-22T12:32:38;24.30;51.80
37702;DHT22;23548;51.196;6.838;2023-07-22T12:35:04;24.30;51.80
37702;DHT22;23548;51.196;6.838;2023-07-22T12:37:30;24.80;50.60
37702;DHT22;23548;51.196;6.838;2023-07-22T12:39:57;24.70;50.80
37702;DHT22;23548;51.196;6.838;2023-07-22T12:42:23;25.10;49.80
37702;DHT22;23548;51.196;6.838;2023-07-22T12:44:49;25.30;49.90
37702;DHT22;23548;51.196;6.838;2023-07-22T12:47:14;25.30;48.40
37702;DHT22;23548;51.196;6.838;2023-07-22T12:49:40;25.80;49.10
37702;DHT22;23548;51.196;6.838;2023-07-22T12:52:06;25.50;49.20
37702;DHT22;23548;51.196;6.838;2023-07-22T12:54:35;25.30;49.20
37702;DHT22;23548;51.196;6.838;2023-07-22T12:57:01;25.20;49.30
37702;DHT22;23548;51.196;6.838;2023-07-22T12:59:28;25.50;49.30
37702;DHT22;23548;51.196;6.838;2023-07-22T13:01:54;25.60;48.70
37702;DHT22;23548;51.196;6.838;2023-07-22T13:04:20;26.00;47.10
37702;DHT22;23548;51.196;6.838;2023-07-22T13:06:45;25.90;46.60
37702;DHT22;23548;51.196;6.838;2023-07-22T13:09:11;26.20;46.10
37702;DHT22;23548;51.196;6.838;2023-07-22T13:11:37;26.50;45.80
37702;DHT22;23548;51.196;6.838;2023-07-22T13:14:03;26.50;44.90
37702;DHT22;23548;51.196;6.838;2023-07-22T13:16:29;27.00;43.80
37702;DHT22;23548;51.196;6.838;2023-07-22T13:18:55;26.80;43.80
37702;DHT22;23548;51.196;6.838;2023-07-22T13:21:21;26.60;43.40
37702;DHT22;23548;51.196;6.838;2023-07-22T13:23:46;27.00;42.60
37702;DHT22;23548;51.196;6.838;2023-07-22T13:26:12;27.20;42.40
37702;DHT22;23548;51.196;6.838;2023-07-22T13:28:38;27.30;42.10
37702;DHT22;23548;51.196;6.838;2023-07-22T13:31:03;26.70;42.30
37702;DHT22;23548;51.196;6.838;2023-07-22T13:33:29;27.10;41.70
37702;DHT22;23548;51.196;6.838;2023-07-22T13:35:56;26.80;40.50
37702;DHT22;23548;51.196;6.838;2023-07-22T13:38:21;27.80;40.30
37702;DHT22;23548;51.196;6.838;2023-07-22T13:40:47;27.80;39.10
37702;DHT22;23548;51.196;6.838;2023-07-22T13:43:13;28.80;38.60
37702;DHT22;23548;51.196;6.838;2023-07-22T13:45:39;28.80;38.50
37702;DHT22;23548;51.196;6.838;2023-07-22T13:48:05;28.70;38.70
37702;DHT22;23548;51.196;6.838;2023-07-22T13:50:30;28.00;39.20
37702;DHT22;23548;51.196;6.838;2023-07-22T13:52:57;27.50;39.30
37702;DHT22;23548;51.196;6.838;2023-07-22T13:55:22;26.60;40.90
37702;DHT22;23548;51.196;6.838;2023-07-22T13:57:48;26.60;41.80
37702;DHT22;23548;51.196;6.838;2023-07-22T14:00:14;27.90;39.90
37702;DHT22;23548;51.196;6.838;2023-07-22T14:02:41;27.90;39.70
37702;DHT22;23548;51.196;6.838;2023-07-22T14:05:07;27.20;40.80
37702;DHT22;23548;51.196;6.838;2023-07-22T14:07:35;27.10;41.30
37702;DHT22;23548;51.196;6.838;2023-07-22T14:10:01;27.40;41.40
37702;DHT22;23548;51.196;6.838;2023-07-22T14:12:26;27.90;40.90
37702;DHT22;23548;51.196;6.838;2023-07-22T14:14:52;28.00;40.30
37702;DHT22;23548;51.196;6.838;2023-07-22T14:17:18;28.30;40.40
37702;DHT22;23548;51.196;6.838;2023-07-22T14:19:44;28.60;39.90
37702;DHT22;23548;51.196;6.838;2023-07-22T14:22:09;29.20;38.90
37702;DHT22;23548;51.196;6.838;2023-07-22T14:24:35;28.50;39.70
37702;DHT22;23548;51.196;6.838;2023-07-22T14:27:01;27.20;41.50
37702;DHT22;23548;51.196;6.838;2023-07-22T14:29:27;27.50;41.20
37702;DHT22;23548;51.196;6.838;2023-07-22T14:31:56;28.00;40.50
37702;DHT22;23548;51.196;6.838;2023-07-22T14:34:22;30.60;38.50
37702;DHT22;23548;51.196;6.838;2023-07-22T14:36:48;32.40;35.50
37702;DHT22;23548;51.196;6.838;2023-07-22T14:39:14;30.80;35.50
37702;DHT22;23548;51.196;6.838;2023-07-22T14:41:41;28.90;39.40
37702;DHT22;23548;51.196;6.838;2023-07-22T14:44:08;29.00;39.40
37702;DHT22;23548;51.196;6.838;2023-07-22T14:46:34;28.80;39.00
37702;DHT22;23548;51.196;6.838;2023-07-22T14:49:00;29.70;39.00
37702;DHT22;23548;51.196;6.838;2023-07-22T14:51:27;28.60;40.30
37702;DHT22;23548;51.196;6.838;2023-07-22T14:53:52;29.20;39.30
37702;DHT22;23548;51.196;6.838;2023-07-22T14:56:18;30.40;37.90
37702;DHT22;23548;51.196;6.838;2023-07-22T14:58:44;29.30;38.30
37702;DHT22;23548;51.196;6.838;2023-07-22T15:01:10;28.60;39.60
37702;DHT22;23548;51.196;6.838;2023-07-22T15:03:39;28.60;39.60
37702;DHT22;23548;51.196;6.838;2023-07-22T15:06:05;28.20;39.70
37702;DHT22;23548;51.196;6.838;2023-07-22T15:08:32;28.00;40.40
37702;DHT22;23548;51.196;6.838;2023-07-22T15:10:58;28.90;39.40
37702;DHT22;23548;51.196;6.838;2023-07-22T15:13:24;29.20;38.90
37702;DHT22;23548;51.196;6.838;2023-07-22T15:15:52;29.40;38.40
37702;DHT22;23548;51.196;6.838;2023-07-22T15:18:18;29.20;38.50
37702;DHT22;23548;51.196;6.838;2023-07-22T15:20:44;29.30;38.10
37702;DHT22;23548;51.196;6.838;2023-07-22T15:23:10;28.70;39.40
37702;DHT22;23548;51.196;6.838;2023-07-22T15:25:36;29.40;38.10
37702;DHT22;23548;51.196;6.838;2023-07-22T15:28:01;30.10;37.90
37702;DHT22;23548;51.196;6.838;2023-07-22T15:30:27;30.40;37.90
37702;DHT22;23548;51.196;6.838;2023-07-22T15:32:53;29.50;38.40
37702;DHT22;23548;51.196;6.838;2023-07-22T15:35:19;27.90;41.00
37702;DHT22;23548;51.196;6.838;2023-07-22T15:37:45;27.10;41.90
37702;DHT22;23548;51.196;6.838;2023-07-22T15:40:10;26.70;42.80
37702;DHT22;23548;51.196;6.838;2023-07-22T15:42:36;27.90;41.00
37702;DHT22;23548;51.196;6.838;2023-07-22T15:45:02;27.70;40.80
37702;DHT22;23548;51.196;6.838;2023-07-22T15:47:29;28.40;40.90
37702;DHT22;23548;51.196;6.838;2023-07-22T15:49:54;28.90;39.40
37702;DHT22;23548;51.196;6.838;2023-07-22T15:52:20;28.20;40.60
37702;DHT22;23548;51.196;6.838;2023-07-22T15:54:46;28.00;41.00
37702;DHT22;23548;51.196;6.838;2023-07-22T15:57:11;28.70;40.20
37702;DHT22;23548;51.196;6.838;2023-07-22T15:59:37;28.00;41.00